Time;durP1;ratioP1;P1;durP2;ratioP2;P2;SDS_P1;SDS_P2;PMS_P1;PMS_P2;Temp;Humidity;BMP_temperature;BMP_pressure;BME280_temperature;BME280_humidity;BME280_pressure;Samples;Min_cycle;Max_cycle;Signal;HPM_P1;HPM_P2
2022/04/07 00:02:18;;;;;;;2.85;2.20;;;;;;;11.23;100.00;94998.41;5071774;28;20087;-58
2022/04/07 00:04:48;;;;;;;2.38;2.17;;;;;;;11.33;100.00;94992.84;5066862;28;20064;-58
2022/04/07 00:07:16;;;;;;;2.20;2.00;;;;;;;11.28;100.00;94993.38;5065575;28;20052;-58
2022/04/07 00:09:44;;;;;;;3.40;2.35;;;;;;;11.30;100.00;94991.38;5070895;28;20064;-59
2022/04/07 00:12:12;;;;;;;3.38;2.28;;;;;;;11.35;100.00;94991.63;5068394;28;20072;-57
2022/04/07 00:14:41;;;;;;;3.42;2.30;;;;;;;11.24;100.00;94984.19;5065815;28;20072;-56
2022/04/07 00:17:09;;;;;;;2.55;2.30;;;;;;;11.34;100.00;94987.34;5060815;28;20072;-58
2022/04/07 00:19:37;;;;;;;2.70;2.30;;;;;;;11.35;100.00;94981.06;5062755;28;20068;-53
2022/04/07 00:22:07;;;;;;;3.45;2.30;;;;;;;11.24;100.00;94986.00;5065310;28;20068;-56
2022/04/07 00:24:35;;;;;;;2.30;2.10;;;;;;;11.11;100.00;94984.88;5065825;28;20067;-55
2022/04/07 00:27:04;;;;;;;2.50;2.30;;;;;;;11.27;100.00;94983.81;5064638;28;20064;-57
2022/04/07 00:29:33;;;;;;;2.97;2.60;;;;;;;11.04;100.00;94981.31;5070297;28;20616;-55
2022/04/07 00:32:05;;;;;;;2.97;2.20;;;;;;;11.17;100.00;94980.66;5068333;28;20083;-52
2022/04/07 00:34:34;;;;;;;2.50;2.30;;;;;;;11.14;100.00;94973.91;5067891;28;20072;-61
2022/04/07 00:37:02;;;;;;;2.83;2.50;;;;;;;11.01;100.00;94976.44;5068712;28;20677;-58
2022/04/07 00:39:32;;;;;;;3.83;2.28;;;;;;;11.06;100.00;94975.84;5063534;28;20056;-54
2022/04/07 00:42:00;;;;;;;2.53;2.33;;;;;;;10.81;100.00;94977.97;5062894;28;20090;-55
2022/04/07 00:44:29;;;;;;;2.88;2.58;;;;;;;10.81;100.00;94978.78;5067808;28;20087;-58
2022/04/07 00:46:57;;;;;;;2.95;2.50;;;;;;;10.93;100.00;94982.59;5067385;28;20075;-58
2022/04/07 00:49:25;;;;;;;3.08;2.35;;;;;;;10.99;100.00;94985.50;5065452;28;20072;-56
2022/04/07 00:51:54;;;;;;;4.15;2.50;;;;;;;11.12;100.00;94977.78;5068331;28;20080;-58
2022/04/07 00:54:23;;;;;;;3.08;2.55;;;;;;;11.08;100.00;94969.41;5065040;28;20470;-56
2022/04/07 00:56:54;;;;;;;2.85;2.42;;;;;;;11.28;100.00;94968.81;5068019;28;20530;-60
2022/04/07 00:59:23;;;;;;;2.60;2.40;;;;;;;11.37;100.00;94965.06;5066063;28;20083;-58
2022/04/07 01:01:51;;;;;;;2.40;2.20;;;;;;;11.45;100.00;94967.56;5068491;28;20064;-58
2022/04/07 01:04:20;;;;;;;2.80;2.42;;;;;;;11.16;100.00;94963.19;5062541;28;20473;-53
2022/04/07 01:06:49;;;;;;;2.80;2.40;;;;;;;11.10;100.00;94958.66;5067624;28;20061;-56
2022/04/07 01:09:19;;;;;;;3.22;2.65;;;;;;;10.96;100.00;94959.50;5063485;28;20063;-54
2022/04/07 01:11:48;;;;;;;2.42;2.22;;;;;;;10.91;100.00;94952.16;5063504;28;20081;-56
2022/04/07 01:14:18;;;;;;;2.65;2.42;;;;;;;10.63;100.00;94955.44;5047332;28;20479;-51
2022/04/07 01:16:47;;;;;;;2.75;2.33;;;;;;;10.86;100.00;94952.69;5067100;28;20484;-54
2022/04/07 01:19:15;;;;;;;2.67;2.40;;;;;;;10.98;100.00;94952.22;5077426;28;20068;-60
2022/04/07 01:21:44;;;;;;;3.00;2.70;;;;;;;11.14;100.00;94949.38;5066712;28;20064;-57
2022/04/07 01:24:13;;;;;;;3.13;2.60;;;;;;;11.08;100.00;94939.53;5068991;28;20075;-57
2022/04/07 01:26:44;;;;;;;2.60;2.40;;;;;;;11.00;100.00;94945.75;5075413;28;20063;-56
2022/04/07 01:29:19;;;;;;;2.50;2.30;;;;;;;11.28;100.00;94945.06;5068815;28;20084;-57
2022/04/07 01:31:47;;;;;;;3.85;2.53;;;;;;;11.04;100.00;94941.75;5063203;28;20068;-56
2022/04/07 01:34:17;;;;;;;2.38;2.17;;;;;;;10.79;100.00;94938.59;5069730;28;20068;-55
2022/04/07 01:36:47;;;;;;;2.58;2.38;;;;;;;11.01;100.00;94941.28;5070948;28;20063;-57
2022/04/07 01:39:18;;;;;;;2.45;2.25;;;;;;;10.80;100.00;94934.13;5070338;28;20467;-60
2022/04/07 01:41:47;;;;;;;2.85;2.40;;;;;;;11.01;100.00;94933.38;5074049;28;20086;-53
2022/04/07 01:44:16;;;;;;;3.33;2.20;;;;;;;10.91;100.00;94936.34;5074165;28;20553;-56
2022/04/07 01:46:46;;;;;;;2.30;2.10;;;;;;;10.90;100.00;94932.03;5066137;28;20056;-52
2022/04/07 01:49:14;;;;;;;2.40;2.20;;;;;;;10.89;100.00;94925.13;5068280;28;20075;-56
2022/04/07 01:51:43;;;;;;;3.53;2.17;;;;;;;10.89;100.00;94931.22;5072070;28;20522;-58
2022/04/07 01:54:12;;;;;;;2.10;1.98;;;;;;;10.80;100.00;94934.94;5068767;28;20060;-59
2022/04/07 01:56:40;;;;;;;2.30;2.10;;;;;;;10.82;100.00;94932.16;5070264;28;20064;-56
2022/04/07 01:59:12;;;;;;;2.17;1.90;;;;;;;10.85;100.00;94929.97;5070234;28;20091;-58
2022/04/07 02:01:40;;;;;;;2.22;2.05;;;;;;;10.99;100.00;94928.31;5068576;28;20443;-56
2022/04/07 02:04:08;;;;;;;2.40;2.20;;;;;;;11.07;100.00;94930.81;5070256;28;20071;-58
2022/04/07 02:06:37;;;;;;;2.30;2.10;;;;;;;11.04;100.00;94925.91;5063685;28;20465;-56
2022/04/07 02:09:05;;;;;;;2.85;2.20;;;;;;;11.13;100.00;94914.25;5056925;28;20079;-55
2022/04/07 02:11:33;;;;;;;2.95;2.65;;;;;;;11.24;100.00;94927.97;5063458;28;20091;-59
2022/04/07 02:14:02;;;;;;;2.88;2.33;;;;;;;11.15;100.00;94925.47;5064127;28;20236;-59
2022/04/07 02:16:32;;;;;;;2.60;2.13;;;;;;;11.26;100.00;94928.63;5062593;28;20068;-57
2022/04/07 02:19:00;;;;;;;2.50;2.30;;;;;;;11.12;100.00;94931.09;5064096;28;20470;-55
2022/04/07 02:21:28;;;;;;;2.47;2.28;;;;;;;11.11;100.00;94937.38;5058432;28;20472;-56
2022/04/07 02:23:58;;;;;;;2.50;2.30;;;;;;;11.25;100.00;94934.88;5059548;28;20124;-58
2022/04/07 02:26:27;;;;;;;2.60;2.40;;;;;;;11.33;100.00;94937.41;5065165;28;20538;-56
2022/04/07 02:28:55;;;;;;;2.65;2.45;;;;;;;11.28;100.00;94930.03;5062881;28;20076;-56
2022/04/07 02:31:23;;;;;;;3.45;2.28;;;;;;;11.35;100.00;94924.84;5061738;28;20079;-55
2022/04/07 02:33:53;;;;;;;2.97;2.30;;;;;;;11.58;100.00;94924.66;5064008;28;20090;-58
2022/04/07 02:36:21;;;;;;;2.55;2.17;;;;;;;11.51;100.00;94914.03;5062017;28;20167;-56
2022/04/07 02:38:49;;;;;;;2.53;2.22;;;;;;;11.65;100.00;94907.88;5062223;28;20616;-54
2022/04/07 02:41:17;;;;;;;2.70;2.50;;;;;;;11.50;100.00;94901.84;5063280;28;20122;-54
2022/04/07 02:43:46;;;;;;;4.30;2.45;;;;;;;11.58;100.00;94908.84;5062901;28;20072;-55
2022/04/07 02:46:14;;;;;;;2.58;2.38;;;;;;;11.55;100.00;94904.72;5063472;28;20072;-58
2022/04/07 02:48:42;;;;;;;2.78;2.58;;;;;;;11.37;100.00;94904.38;5068265;28;20071;-55
2022/04/07 02:51:12;;;;;;;2.65;2.45;;;;;;;11.57;100.00;94908.00;5065958;28;22085;-55
2022/04/07 02:53:40;;;;;;;2.88;2.55;;;;;;;11.39;100.00;94913.75;5063438;28;20080;-55
2022/04/07 02:56:08;;;;;;;2.80;2.50;;;;;;;11.55;100.00;94911.84;5065118;28;20078;-59
2022/04/07 02:58:37;;;;;;;2.60;2.40;;;;;;;11.39;100.00;94913.75;5066907;28;20075;-55
2022/04/07 03:01:05;;;;;;;3.40;2.60;;;;;;;11.60;100.00;94910.28;5068003;28;20072;-59
2022/04/07 03:03:33;;;;;;;2.95;2.65;;;;;;;11.55;100.00;94901.28;5067686;28;20068;-58
2022/04/07 03:06:01;;;;;;;2.50;2.30;;;;;;;11.52;100.00;94904.31;5068592;28;20068;-56
2022/04/07 03:08:32;;;;;;;3.70;2.45;;;;;;;11.47;100.00;94899.59;5061635;28;20084;-54
2022/04/07 03:11:01;;;;;;;2.63;2.42;;;;;;;11.65;100.00;94897.31;5065844;28;20064;-58
2022/04/07 03:13:29;;;;;;;3.00;2.60;;;;;;;11.62;100.00;94900.34;5063246;28;20075;-51
2022/04/07 03:15:58;;;;;;;2.47;2.20;;;;;;;11.39;100.00;94894.44;5064873;28;20080;-56
2022/04/07 03:18:26;;;;;;;2.50;2.30;;;;;;;11.50;100.00;94888.66;5064029;28;20123;-54
2022/04/07 03:20:55;;;;;;;2.90;2.47;;;;;;;11.59;100.00;94884.88;5066187;28;20608;-59
2022/04/07 03:23:23;;;;;;;2.60;2.40;;;;;;;11.51;100.00;94889.47;5061905;28;20147;-59
2022/04/07 03:25:53;;;;;;;2.67;2.35;;;;;;;11.34;100.00;94904.72;5064549;28;20098;-57
2022/04/07 03:28:21;;;;;;;2.75;2.45;;;;;;;11.31;100.00;94900.66;5062758;28;20128;-57
2022/04/07 03:30:49;;;;;;;3.33;3.00;;;;;;;11.24;100.00;94899.75;5065619;28;20076;-60
2022/04/07 03:33:19;;;;;;;2.33;2.13;;;;;;;11.03;100.00;94900.56;5061466;28;20123;-58
2022/04/07 03:35:47;;;;;;;3.03;2.72;;;;;;;11.14;100.00;94901.88;5062129;28;20087;-55
2022/04/07 03:38:16;;;;;;;2.40;2.20;;;;;;;11.01;100.00;94891.19;5061064;28;20164;-60
2022/04/07 03:40:44;;;;;;;2.60;2.40;;;;;;;11.02;100.00;94895.47;5066636;28;20079;-53
2022/04/07 03:43:14;;;;;;;2.50;2.30;;;;;;;11.09;100.00;94891.91;5067295;28;20064;-54
2022/04/07 03:45:42;;;;;;;2.63;2.42;;;;;;;10.97;100.00;94897.84;5064309;28;20060;-56
2022/04/07 03:48:10;;;;;;;2.45;2.25;;;;;;;10.92;100.00;94885.22;5063810;28;20068;-52
2022/04/07 03:50:39;;;;;;;2.80;2.60;;;;;;;11.01;100.00;94884.09;5065905;28;20084;-56
2022/04/07 03:53:07;;;;;;;2.83;2.50;;;;;;;11.32;100.00;94885.63;5070646;28;20530;-50
2022/04/07 03:55:35;;;;;;;2.72;2.33;;;;;;;11.00;100.00;94879.81;5070292;28;20075;-57
2022/04/07 03:58:03;;;;;;;4.15;2.42;;;;;;;10.94;100.00;94872.63;5060344;28;20128;-56
2022/04/07 04:00:33;;;;;;;2.47;2.28;;;;;;;10.86;100.00;94878.84;5069843;28;20068;-54
2022/04/07 04:03:01;;;;;;;3.35;2.15;;;;;;;10.96;100.00;94872.47;5067800;28;20505;-58
2022/04/07 04:05:29;;;;;;;2.30;2.10;;;;;;;10.86;100.00;94875.41;5069578;28;20556;-53
2022/04/07 04:07:59;;;;;;;2.60;2.40;;;;;;;10.69;100.00;94867.69;5069329;28;20067;-53
2022/04/07 04:10:28;;;;;;;2.30;2.10;;;;;;;10.59;100.00;94869.00;5063584;28;20075;-54
2022/04/07 04:12:56;;;;;;;1.90;1.80;;;;;;;10.41;100.00;94858.84;5064758;28;20509;-55
2022/04/07 04:15:24;;;;;;;2.95;2.67;;;;;;;10.56;100.00;94870.16;5069441;28;20431;-57
2022/04/07 04:17:54;;;;;;;2.30;2.10;;;;;;;10.43;100.00;94884.00;5064138;28;20084;-51
2022/04/07 04:20:22;;;;;;;2.05;1.90;;;;;;;10.37;100.00;94870.75;5070402;28;20076;-54
2022/04/07 04:22:51;;;;;;;2.00;1.90;;;;;;;10.40;100.00;94870.38;5067507;28;20049;-54
2022/04/07 04:25:20;;;;;;;1.83;1.73;;;;;;;10.15;100.00;94885.59;5060206;28;20465;-54
2022/04/07 04:27:48;;;;;;;2.75;2.10;;;;;;;10.33;100.00;94890.56;5068980;28;20071;-54
2022/04/07 04:30:18;;;;;;;2.63;1.80;;;;;;;10.10;100.00;94878.22;5060557;28;20460;-58
2022/04/07 04:32:46;;;;;;;2.15;1.95;;;;;;;10.15;100.00;94886.44;5068312;28;20056;-53
2022/04/07 04:35:15;;;;;;;2.28;2.08;;;;;;;10.11;100.00;94886.94;5072824;28;20080;-55
2022/04/07 04:37:44;;;;;;;2.75;2.00;;;;;;;10.09;100.00;94889.78;5064781;28;20471;-54
2022/04/07 04:40:12;;;;;;;2.15;1.95;;;;;;;9.99;100.00;94886.59;5064073;28;20072;-50
2022/04/07 04:42:40;;;;;;;2.35;2.15;;;;;;;10.27;100.00;94901.81;5057848;28;20072;-59
2022/04/07 04:45:09;;;;;;;2.22;2.03;;;;;;;10.05;100.00;94900.81;5066662;28;20064;-53
2022/04/07 04:47:37;;;;;;;2.08;1.90;;;;;;;9.98;100.00;94890.22;5068154;28;20076;-54
2022/04/07 04:50:06;;;;;;;2.22;2.03;;;;;;;10.25;100.00;94895.84;5069565;28;20076;-54
2022/04/07 04:52:35;;;;;;;1.70;1.60;;;;;;;10.03;100.00;94890.50;5068790;28;20063;-56
2022/04/07 04:55:04;;;;;;;1.90;1.80;;;;;;;10.24;100.00;94887.13;5068800;28;20072;-56
2022/04/07 04:57:33;;;;;;;2.63;1.90;;;;;;;10.47;100.00;94894.19;5063012;28;20065;-57
2022/04/07 05:00:01;;;;;;;1.95;1.80;;;;;;;10.41;100.00;94893.09;5065319;28;20517;-54
2022/04/07 05:02:29;;;;;;;1.90;1.80;;;;;;;10.21;100.00;94874.34;5059682;28;20084;-55
2022/04/07 05:04:58;;;;;;;1.90;1.80;;;;;;;10.23;100.00;94881.06;5068687;28;20076;-59
2022/04/07 05:07:26;;;;;;;2.78;2.40;;;;;;;10.71;100.00;94875.44;5066793;28;20056;-56
2022/04/07 05:09:59;;;;;;;2.20;1.98;;;;;;;10.64;100.00;94880.63;5068541;28;20060;-51
2022/04/07 05:12:27;;;;;;;2.30;2.10;;;;;;;10.85;100.00;94871.94;5069054;28;20056;-56
2022/04/07 05:14:55;;;;;;;1.88;1.70;;;;;;;10.78;100.00;94880.78;5068737;28;20064;-56
2022/04/07 05:17:24;;;;;;;1.77;1.67;;;;;;;10.77;100.00;94876.50;5063700;28;20084;-56
2022/04/07 05:19:52;;;;;;;1.52;1.42;;;;;;;10.57;100.00;94879.72;5066295;28;20075;-56
2022/04/07 05:22:20;;;;;;;1.60;1.50;;;;;;;10.28;100.00;94866.56;5067613;28;20252;-55
2022/04/07 05:24:49;;;;;;;3.85;3.33;;;;;;;10.28;100.00;94871.81;5068975;28;20068;-55
2022/04/07 05:27:19;;;;;;;2.30;1.70;;;;;;;10.33;100.00;94880.00;5067408;28;20166;-54
2022/04/07 05:29:47;;;;;;;1.75;1.65;;;;;;;10.27;100.00;94875.47;5068091;28;20083;-56
2022/04/07 05:32:15;;;;;;;1.70;1.60;;;;;;;10.33;100.00;94883.47;5066978;28;20553;-56
2022/04/07 05:34:43;;;;;;;1.98;1.88;;;;;;;10.34;100.00;94873.72;5067984;28;20075;-56
2022/04/07 05:37:12;;;;;;;2.30;1.80;;;;;;;10.45;100.00;94868.00;5060214;28;20071;-55
2022/04/07 05:39:40;;;;;;;1.70;1.60;;;;;;;10.39;100.00;94869.56;5065633;28;20067;-56
2022/04/07 05:42:09;;;;;;;1.70;1.60;;;;;;;10.52;100.00;94871.53;5064566;28;20686;-55
2022/04/07 05:44:38;;;;;;;1.95;1.60;;;;;;;10.44;100.00;94869.00;5067935;28;20079;-57
2022/04/07 05:47:08;;;;;;;3.10;1.85;;;;;;;10.95;100.00;94866.38;5063621;28;20161;-53
2022/04/07 05:49:36;;;;;;;3.25;1.60;;;;;;;10.78;100.00;94875.53;5058912;28;21778;-57
2022/04/07 05:52:05;;;;;;;1.70;1.60;;;;;;;10.82;100.00;94860.97;5067364;28;20067;-55
2022/04/07 05:54:38;;;;;;;1.80;1.70;;;;;;;10.95;100.00;94863.75;5067731;28;20067;-56
2022/04/07 05:57:06;;;;;;;2.38;1.60;;;;;;;11.10;100.00;94855.78;5065516;28;20072;-52
2022/04/07 05:59:34;;;;;;;1.63;1.52;;;;;;;11.09;100.00;94854.97;5062889;28;20087;-56
2022/04/07 06:02:05;;;;;;;1.67;1.58;;;;;;;10.99;100.00;94862.38;5067710;28;20084;-53
2022/04/07 06:04:33;;;;;;;1.50;1.40;;;;;;;10.84;100.00;94857.13;5068295;28;20575;-56
2022/04/07 06:07:01;;;;;;;1.50;1.40;;;;;;;10.77;100.00;94829.03;5067930;28;21465;-52
2022/04/07 06:09:29;;;;;;;1.50;1.40;;;;;;;10.93;100.00;94837.53;5067049;28;20064;-55
2022/04/07 06:11:58;;;;;;;1.52;1.45;;;;;;;11.14;100.00;94828.81;5073546;28;20048;-51
2022/04/07 06:14:26;;;;;;;1.83;1.50;;;;;;;11.19;100.00;94828.28;5065445;28;20098;-55
2022/04/07 06:16:54;;;;;;;1.60;1.50;;;;;;;11.10;100.00;94830.22;5067706;28;20064;-56
2022/04/07 06:19:24;;;;;;;1.85;1.50;;;;;;;11.19;100.00;94822.19;5067506;28;20063;-52
2022/04/07 06:21:52;;;;;;;1.87;1.60;;;;;;;11.15;100.00;94825.22;5069247;28;20048;-57
2022/04/07 06:24:21;;;;;;;2.55;1.45;;;;;;;11.35;100.00;94822.72;5068878;28;20917;-56
2022/04/07 06:26:50;;;;;;;1.95;1.38;;;;;;;11.23;100.00;94818.97;5070688;28;20080;-53
2022/04/07 06:29:18;;;;;;;1.73;1.45;;;;;;;11.36;100.00;94829.66;5071270;28;20079;-59
2022/04/07 06:31:46;;;;;;;1.40;1.30;;;;;;;11.39;100.00;94834.56;5068853;28;20068;-54
2022/04/07 06:34:21;;;;;;;1.50;1.40;;;;;;;11.41;100.00;94829.09;5070976;28;20071;-52
2022/04/07 06:36:51;;;;;;;1.40;1.30;;;;;;;11.34;100.00;94815.00;5069138;28;20061;-54
2022/04/07 06:39:19;;;;;;;3.25;1.50;;;;;;;11.48;100.00;94813.31;5071321;28;20146;-55
2022/04/07 06:41:47;;;;;;;1.42;1.33;;;;;;;11.47;100.00;94804.56;5070930;28;20110;-52
2022/04/07 06:44:19;;;;;;;1.50;1.40;;;;;;;11.79;100.00;94808.47;5065295;28;20099;-54
2022/04/07 06:46:47;;;;;;;2.20;1.48;;;;;;;12.05;100.00;94807.84;5075661;28;20083;-51
2022/04/07 06:49:15;;;;;;;1.50;1.40;;;;;;;12.13;100.00;94796.31;5068467;28;20075;-56
2022/04/07 06:51:43;;;;;;;1.73;1.50;;;;;;;11.98;100.00;94804.38;5071388;28;20491;-56
2022/04/07 06:54:13;;;;;;;2.33;1.40;;;;;;;12.19;100.00;94792.09;5070868;28;20079;-55
2022/04/07 06:56:41;;;;;;;1.30;1.20;;;;;;;11.90;100.00;94767.53;5071344;28;20553;-56
2022/04/07 06:59:10;;;;;;;1.45;1.35;;;;;;;12.26;100.00;94777.88;5069390;28;20080;-57
2022/04/07 07:01:38;;;;;;;2.50;1.40;;;;;;;12.21;100.00;94784.75;5070902;28;20498;-55
2022/04/07 07:04:07;;;;;;;1.40;1.30;;;;;;;12.17;100.00;94797.56;5063963;28;20452;-52
2022/04/07 07:06:35;;;;;;;1.50;1.40;;;;;;;12.45;100.00;94794.03;5071093;28;20095;-56
2022/04/07 07:09:03;;;;;;;1.40;1.30;;;;;;;12.50;100.00;94781.84;5066917;28;20071;-57
2022/04/07 07:11:33;;;;;;;1.20;1.20;;;;;;;12.30;100.00;94779.13;5071822;28;20076;-58
2022/04/07 07:14:01;;;;;;;1.40;1.30;;;;;;;12.70;100.00;94778.47;5069276;28;20479;-56
2022/04/07 07:16:29;;;;;;;1.33;1.20;;;;;;;12.66;100.00;94787.78;5071279;28;20071;-53
2022/04/07 07:18:57;;;;;;;1.20;1.20;;;;;;;12.99;100.00;94772.00;5066728;28;20538;-56
2022/04/07 07:21:26;;;;;;;1.10;1.10;;;;;;;12.90;100.00;94776.66;5068912;28;20071;-57
2022/04/07 07:23:54;;;;;;;1.10;1.10;;;;;;;12.78;100.00;94775.63;5068227;28;20080;-58
2022/04/07 07:26:22;;;;;;;1.20;1.10;;;;;;;13.01;100.00;94760.22;5071566;28;20064;-54
2022/04/07 07:28:52;;;;;;;1.50;1.20;;;;;;;13.44;100.00;94754.56;5069762;28;20076;-56
2022/04/07 07:31:20;;;;;;;1.10;1.10;;;;;;;13.42;100.00;94751.31;5070355;28;20076;-54
2022/04/07 07:33:48;;;;;;;1.30;1.20;;;;;;;13.59;100.00;94754.34;5069386;28;20733;-55
2022/04/07 07:36:16;;;;;;;1.63;1.10;;;;;;;13.63;100.00;94752.94;5066486;28;20071;-57
2022/04/07 07:38:45;;;;;;;1.50;1.40;;;;;;;13.43;100.00;94754.78;5066701;28;20485;-57
2022/04/07 07:41:13;;;;;;;1.25;1.15;;;;;;;13.81;100.00;94749.66;5069469;28;20178;-55
2022/04/07 07:43:41;;;;;;;1.35;1.10;;;;;;;14.00;100.00;94759.41;5070547;28;20064;-57
2022/04/07 07:46:11;;;;;;;1.00;1.00;;;;;;;13.37;100.00;94737.88;5070451;28;20071;-57
2022/04/07 07:48:39;;;;;;;1.63;1.00;;;;;;;13.73;100.00;94747.22;5070357;28;20068;-54
2022/04/07 07:51:07;;;;;;;2.13;0.98;;;;;;;13.79;100.00;94738.44;5065540;28;20075;-60
2022/04/07 07:53:35;;;;;;;1.02;1.00;;;;;;;14.39;100.00;94740.94;5070640;28;20080;-58
2022/04/07 07:56:04;;;;;;;5.47;1.10;;;;;;;13.80;100.00;94736.59;5064848;28;20123;-58
2022/04/07 07:58:33;;;;;;;2.72;1.10;;;;;;;13.95;100.00;94731.88;5064735;28;20056;-56
2022/04/07 08:01:02;;;;;;;1.25;0.93;;;;;;;13.95;100.00;94739.84;5070842;28;20064;-59
2022/04/07 08:03:32;;;;;;;2.25;1.00;;;;;;;14.07;100.00;94732.03;5067727;28;20083;-59
2022/04/07 08:06:00;;;;;;;1.20;1.10;;;;;;;14.27;100.00;94726.69;5069712;28;20514;-60
2022/04/07 08:08:29;;;;;;;1.38;1.10;;;;;;;14.25;96.64;94737.50;5068058;28;20095;-59
2022/04/07 08:10:57;;;;;;;1.75;1.10;;;;;;;14.37;94.24;94711.13;5063277;28;20063;-60
2022/04/07 08:13:25;;;;;;;2.25;0.90;;;;;;;14.08;100.00;94717.78;5069961;28;20068;-57
2022/04/07 08:15:53;;;;;;;0.90;0.90;;;;;;;14.21;100.00;94728.31;5069865;28;20749;-59
2022/04/07 08:18:23;;;;;;;1.52;1.15;;;;;;;14.39;100.00;94691.34;5069163;28;20146;-56
2022/04/07 08:20:52;;;;;;;1.10;1.10;;;;;;;14.60;100.00;94684.13;5069758;28;20076;-59
2022/04/07 08:23:21;;;;;;;1.35;0.90;;;;;;;14.54;95.23;94717.63;5070216;28;20439;-57
2022/04/07 08:25:49;;;;;;;1.08;0.98;;;;;;;14.57;89.23;94687.22;5068290;28;20075;-53
2022/04/07 08:28:17;;;;;;;0.90;0.90;;;;;;;14.56;100.00;94697.00;5066635;28;20064;-57
2022/04/07 08:30:45;;;;;;;0.90;0.90;;;;;;;15.13;99.95;94707.66;5067818;28;20064;-59
2022/04/07 08:33:13;;;;;;;0.90;0.90;;;;;;;14.45;92.60;94674.59;5072212;28;20071;-59
2022/04/07 08:35:42;;;;;;;0.80;0.80;;;;;;;14.54;92.88;94683.13;5069486;28;20076;-60
2022/04/07 08:38:14;;;;;;;0.90;0.90;;;;;;;14.27;99.54;94677.13;5070094;28;20087;-60
2022/04/07 08:40:42;;;;;;;0.90;0.90;;;;;;;14.39;96.02;94686.03;5068572;28;20052;-59
2022/04/07 08:43:11;;;;;;;0.98;0.98;;;;;;;14.71;97.81;94673.66;5063647;28;20477;-60
2022/04/07 08:45:42;;;;;;;1.60;1.48;;;;;;;14.96;89.09;94678.16;5066994;28;20071;-56
2022/04/07 08:48:12;;;;;;;1.00;0.90;;;;;;;14.91;87.35;94678.81;5067522;28;20064;-60
2022/04/07 08:50:42;;;;;;;2.40;0.90;;;;;;;15.07;85.47;94674.84;5069293;28;20461;-59
2022/04/07 08:53:12;;;;;;;1.83;0.90;;;;;;;15.07;84.49;94636.84;5068235;28;20079;-58
2022/04/07 08:55:41;;;;;;;1.27;1.00;;;;;;;15.13;80.99;94659.88;5068451;28;20067;-62
2022/04/07 08:58:10;;;;;;;2.25;1.10;;;;;;;15.20;89.97;94657.97;5058834;28;20064;-59
2022/04/07 09:00:38;;;;;;;1.80;1.00;;;;;;;15.51;74.50;94643.78;5067143;28;20079;-54
2022/04/07 09:03:06;;;;;;;1.55;1.23;;;;;;;15.10;80.11;94626.59;5070178;28;20518;-60
2022/04/07 09:05:53;;;;;;;0.95;0.95;;;;;;;15.92;79.31;94646.88;5067969;28;20091;-59
2022/04/07 09:08:29;;;;;;;1.58;0.90;;;;;;;15.85;67.58;94652.25;5063564;28;20608;-57
2022/04/07 09:10:58;;;;;;;0.90;0.85;;;;;;;15.65;74.35;94637.28;5066282;28;20412;-61
2022/04/07 09:13:30;;;;;;;1.27;0.85;;;;;;;15.70;80.53;94651.81;5059656;28;20119;-60
2022/04/07 09:15:59;;;;;;;1.58;0.80;;;;;;;15.95;74.42;94643.75;5067319;28;20536;-59
2022/04/07 09:18:28;;;;;;;2.57;0.87;;;;;;;16.21;79.64;94643.44;5068809;28;20064;-60
2022/04/07 09:20:56;;;;;;;0.82;0.82;;;;;;;16.08;86.36;94614.38;5066966;28;20068;-58
2022/04/07 09:23:26;;;;;;;0.70;0.70;;;;;;;16.09;74.29;94629.28;5068860;28;20090;-61
2022/04/07 09:25:54;;;;;;;0.70;0.70;;;;;;;16.05;78.32;94606.84;5069169;28;20467;-58
2022/04/07 09:28:27;;;;;;;0.70;0.70;;;;;;;16.09;75.97;94597.38;5068814;28;20067;-60
2022/04/07 09:30:57;;;;;;;1.05;0.88;;;;;;;16.47;73.31;94588.25;5068059;28;20071;-60
2022/04/07 09:33:27;;;;;;;2.20;0.90;;;;;;;16.70;77.95;94598.97;5068895;28;20070;-58
2022/04/07 09:36:00;;;;;;;2.78;0.90;;;;;;;16.49;64.47;94594.16;5065063;28;20061;-60
2022/04/07 09:38:31;;;;;;;3.38;1.27;;;;;;;16.52;66.11;94602.50;5064378;28;20540;-61
2022/04/07 09:41:07;;;;;;;0.85;0.70;;;;;;;16.55;64.23;94571.94;5062103;28;20470;-61
2022/04/07 09:43:45;;;;;;;4.32;0.80;;;;;;;16.07;66.66;94580.81;5068911;28;20091;-59
2022/04/07 09:46:15;;;;;;;0.88;0.70;;;;;;;16.38;69.08;94585.13;5068697;28;20064;-60
2022/04/07 09:49:04;;;;;;;1.02;0.77;;;;;;;16.37;70.46;94570.97;5068735;28;20083;-59
2022/04/07 09:51:40;;;;;;;0.70;0.70;;;;;;;16.28;75.28;94560.91;5067546;28;20060;-61
2022/04/07 09:54:10;;;;;;;0.80;0.80;;;;;;;16.25;66.12;94582.66;5067230;28;20078;-59
2022/04/07 09:56:39;;;;;;;0.90;0.90;;;;;;;16.48;66.40;94549.97;5067262;28;20072;-60
2022/04/07 09:59:08;;;;;;;1.88;0.80;;;;;;;17.01;62.24;94544.63;5064335;28;20080;-57
2022/04/07 10:01:38;;;;;;;0.70;0.70;;;;;;;16.88;63.14;94558.16;5067926;28;20064;-60
2022/04/07 10:04:08;;;;;;;3.10;0.80;;;;;;;17.13;64.26;94509.19;5066408;28;20541;-61
2022/04/07 10:06:38;;;;;;;1.25;0.80;;;;;;;16.71;57.50;94478.16;5067765;28;20067;-61
2022/04/07 10:09:08;;;;;;;0.68;0.68;;;;;;;16.38;58.69;94534.59;5066946;28;20063;-60
2022/04/07 10:11:38;;;;;;;2.40;0.90;;;;;;;17.00;58.13;94518.25;5067799;28;20079;-61
2022/04/07 10:14:06;;;;;;;0.60;0.60;;;;;;;16.97;62.26;94538.16;5068513;28;20080;-58
2022/04/07 10:16:45;;;;;;;0.50;0.50;;;;;;;16.70;60.87;94513.78;5068268;28;20076;-59
2022/04/07 10:19:19;;;;;;;1.15;0.80;;;;;;;16.55;63.22;94532.03;5064404;28;20075;-59
2022/04/07 10:21:56;;;;;;;1.58;0.90;;;;;;;16.73;60.94;94523.97;5061329;28;20080;-61
2022/04/07 10:24:31;;;;;;;0.70;0.70;;;;;;;17.14;60.68;94532.13;5067496;28;20063;-60
2022/04/07 10:27:23;;;;;;;1.02;0.65;;;;;;;16.77;57.50;94527.84;5064353;28;20064;-58
2022/04/07 10:30:08;;;;;;;1.10;0.75;;;;;;;16.20;62.99;94510.69;5068620;28;20084;-59
2022/04/07 10:32:38;;;;;;;0.65;0.60;;;;;;;17.06;64.92;94502.13;5066387;28;20467;-60
2022/04/07 10:35:07;;;;;;;1.20;0.80;;;;;;;17.18;57.84;94491.47;5070506;28;20071;-60
2022/04/07 10:37:47;;;;;;;2.92;0.90;;;;;;;17.08;58.05;94499.25;5067764;28;20098;-61
2022/04/07 10:40:34;;;;;;;0.80;0.60;;;;;;;17.51;60.75;94490.81;5062144;28;20486;-60
2022/04/07 10:43:13;;;;;;;1.00;0.77;;;;;;;17.20;62.55;94464.59;5066260;28;20078;-61
2022/04/07 10:45:43;;;;;;;1.85;0.90;;;;;;;17.81;58.34;94478.34;5067957;28;20514;-60
2022/04/07 10:48:25;;;;;;;0.75;0.75;;;;;;;17.49;59.24;94466.28;5063803;28;20538;-60
2022/04/07 10:50:55;;;;;;;0.90;0.70;;;;;;;17.46;63.24;94455.28;5065128;28;20080;-61
2022/04/07 10:53:26;;;;;;;0.60;0.60;;;;;;;17.41;55.47;94458.66;5068387;28;20080;-61
2022/04/07 10:55:56;;;;;;;1.92;0.80;;;;;;;17.26;54.59;94432.50;5066071;28;20068;-61
2022/04/07 10:58:48;;;;;;;1.27;0.70;;;;;;;16.81;57.35;94451.78;5041818;28;20060;-61
2022/04/07 11:01:42;;;;;;;1.70;0.80;;;;;;;16.76;58.69;94434.91;5053634;28;20070;-61
2022/04/07 11:04:46;;;;;;;0.60;0.60;;;;;;;16.85;57.81;94447.63;5066629;28;20463;-60
2022/04/07 11:07:16;;;;;;;3.10;0.90;;;;;;;16.82;60.70;94439.28;5058748;28;20064;-59
2022/04/07 11:09:46;;;;;;;0.80;0.68;;;;;;;16.89;54.73;94416.03;5066181;28;20110;-61
2022/04/07 11:12:18;;;;;;;0.85;0.63;;;;;;;17.02;56.77;94426.41;5071043;28;20067;-55
2022/04/07 11:14:48;;;;;;;3.55;1.10;;;;;;;17.18;54.35;94408.91;5061795;28;20081;-59
2022/04/07 11:17:23;;;;;;;0.70;0.70;;;;;;;17.24;56.31;94409.81;5070966;28;20076;-60
2022/04/07 11:20:00;;;;;;;1.02;0.77;;;;;;;17.26;56.65;94386.41;5071062;28;20072;-60
2022/04/07 11:22:53;;;;;;;0.65;0.65;;;;;;;16.80;55.71;94375.66;5067668;28;20455;-58
2022/04/07 11:25:24;;;;;;;0.68;0.68;;;;;;;17.02;55.44;94394.47;5069011;28;20072;-59
2022/04/07 11:28:13;;;;;;;1.55;0.60;;;;;;;16.98;55.50;94365.91;5067372;28;20068;-60
2022/04/07 11:30:46;;;;;;;1.77;0.80;;;;;;;17.13;55.61;94382.16;5067438;28;20067;-60
2022/04/07 11:33:26;;;;;;;1.92;0.80;;;;;;;16.75;60.17;94359.56;5071181;28;20720;-57
2022/04/07 11:36:36;;;;;;;0.80;0.80;;;;;;;16.92;57.38;94372.97;5066581;28;20056;-57
2022/04/07 11:39:05;;;;;;;1.92;0.85;;;;;;;17.06;57.52;94370.84;5065115;28;20068;-60
2022/04/07 11:41:43;;;;;;;0.70;0.70;;;;;;;16.70;60.89;94369.28;5071190;28;20084;-60